sensor_id;sensor_type;location;lat;lon;timestamp;P1;durP1;ratioP1;P2;durP2;ratioP2
18042;SDS011;9146;48.074;11.968;2022-10-23T00:01:17;3.00;;;2.80;;
18042;SDS011;9146;48.074;11.968;2022-10-23T00:03:46;2.87;;;2.67;;
18042;SDS011;9146;48.074;11.968;2022-10-23T00:06:16;3.43;;;3.13;;
18042;SDS011;9146;48.074;11.968;2022-10-23T00:08:44;3.00;;;2.70;;
18042;SDS011;9146;48.074;11.968;2022-10-23T00:11:13;2.97;;;2.77;;
18042;SDS011;9146;48.074;11.968;2022-10-23T00:13:42;3.83;;;3.17;;
18042;SDS011;9146;48.074;11.968;2022-10-23T00:16:09;4.33;;;3.17;;
18042;SDS011;9146;48.074;11.968;2022-10-23T00:18:36;3.43;;;3.13;;
18042;SDS011;9146;48.074;11.968;2022-10-23T00:21:04;3.50;;;3.20;;
18042;SDS011;9146;48.074;11.968;2022-10-23T00:23:32;2.90;;;2.60;;
18042;SDS011;9146;48.074;11.968;2022-10-23T00:25:59;5.10;;;3.00;;
18042;SDS011;9146;48.074;11.968;2022-10-23T00:28:28;2.77;;;2.60;;
18042;SDS011;9146;48.074;11.968;2022-10-23T00:30:55;2.50;;;2.30;;
18042;SDS011;9146;48.074;11.968;2022-10-23T00:33:22;2.40;;;2.20;;
18042;SDS011;9146;48.074;11.968;2022-10-23T00:35:49;2.83;;;2.63;;
18042;SDS011;9146;48.074;11.968;2022-10-23T00:38:16;3.10;;;2.90;;
18042;SDS011;9146;48.074;11.968;2022-10-23T00:40:43;3.30;;;3.00;;
18042;SDS011;9146;48.074;11.968;2022-10-23T00:43:15;2.97;;;2.60;;
18042;SDS011;9146;48.074;11.968;2022-10-23T00:45:45;2.90;;;2.70;;
18042;SDS011;9146;48.074;11.968;2022-10-23T00:48:12;3.20;;;2.90;;
18042;SDS011;9146;48.074;11.968;2022-10-23T00:50:39;3.10;;;2.80;;
18042;SDS011;9146;48.074;11.968;2022-10-23T00:53:07;3.00;;;2.80;;
18042;SDS011;9146;48.074;11.968;2022-10-23T00:55:37;3.10;;;2.90;;
18042;SDS011;9146;48.074;11.968;2022-10-23T00:58:10;3.40;;;3.10;;
18042;SDS011;9146;48.074;11.968;2022-10-23T01:00:41;3.20;;;2.90;;
18042;SDS011;9146;48.074;11.968;2022-10-23T01:03:11;3.70;;;3.17;;
18042;SDS011;9146;48.074;11.968;2022-10-23T01:05:40;3.23;;;2.93;;
18042;SDS011;9146;48.074;11.968;2022-10-23T01:08:15;3.73;;;3.03;;
18042;SDS011;9146;48.074;11.968;2022-10-23T01:10:46;2.83;;;2.63;;
18042;SDS011;9146;48.074;11.968;2022-10-23T01:13:19;3.20;;;2.90;;
18042;SDS011;9146;48.074;11.968;2022-10-23T01:15:56;3.60;;;3.30;;
18042;SDS011;9146;48.074;11.968;2022-10-23T01:18:30;3.30;;;3.00;;
18042;SDS011;9146;48.074;11.968;2022-10-23T01:21:06;2.90;;;2.70;;
18042;SDS011;9146;48.074;11.968;2022-10-23T01:23:51;3.27;;;3.07;;
18042;SDS011;9146;48.074;11.968;2022-10-23T01:26:35;3.43;;;3.10;;
18042;SDS011;9146;48.074;11.968;2022-10-23T01:29:24;3.30;;;2.93;;
18042;SDS011;9146;48.074;11.968;2022-10-23T01:31:55;3.40;;;3.10;;
18042;SDS011;9146;48.074;11.968;2022-10-23T01:34:27;3.23;;;2.93;;
18042;SDS011;9146;48.074;11.968;2022-10-23T01:36:57;4.53;;;3.37;;
18042;SDS011;9146;48.074;11.968;2022-10-23T01:39:30;4.23;;;3.17;;
18042;SDS011;9146;48.074;11.968;2022-10-23T01:42:02;3.47;;;3.17;;
18042;SDS011;9146;48.074;11.968;2022-10-23T01:44:35;4.20;;;3.13;;
18042;SDS011;9146;48.074;11.968;2022-10-23T01:47:04;4.30;;;3.10;;
18042;SDS011;9146;48.074;11.968;2022-10-23T01:49:33;2.90;;;2.70;;
18042;SDS011;9146;48.074;11.968;2022-10-23T01:52:05;3.27;;;2.97;;
18042;SDS011;9146;48.074;11.968;2022-10-23T01:54:36;3.20;;;3.00;;
18042;SDS011;9146;48.074;11.968;2022-10-23T01:57:06;3.13;;;2.90;;
18042;SDS011;9146;48.074;11.968;2022-10-23T01:59:37;3.10;;;2.43;;
18042;SDS011;9146;48.074;11.968;2022-10-23T02:02:09;4.63;;;4.23;;
18042;SDS011;9146;48.074;11.968;2022-10-23T02:04:39;3.90;;;3.60;;
18042;SDS011;9146;48.074;11.968;2022-10-23T02:07:11;7.60;;;4.40;;
18042;SDS011;9146;48.074;11.968;2022-10-23T02:09:38;4.87;;;4.43;;
18042;SDS011;9146;48.074;11.968;2022-10-23T02:12:06;6.07;;;4.33;;
18042;SDS011;9146;48.074;11.968;2022-10-23T02:14:38;5.23;;;4.27;;
18042;SDS011;9146;48.074;11.968;2022-10-23T02:17:12;4.37;;;3.87;;
18042;SDS011;9146;48.074;11.968;2022-10-23T02:19:46;5.10;;;3.90;;
18042;SDS011;9146;48.074;11.968;2022-10-23T02:22:21;4.10;;;3.70;;
18042;SDS011;9146;48.074;11.968;2022-10-23T02:24:53;5.03;;;3.10;;
18042;SDS011;9146;48.074;11.968;2022-10-23T02:27:34;3.27;;;2.97;;
18042;SDS011;9146;48.074;11.968;2022-10-23T02:30:07;3.80;;;3.50;;
18042;SDS011;9146;48.074;11.968;2022-10-23T02:32:37;4.43;;;3.53;;
18042;SDS011;9146;48.074;11.968;2022-10-23T02:35:09;3.90;;;3.47;;
18042;SDS011;9146;48.074;11.968;2022-10-23T02:37:37;3.50;;;2.70;;
18042;SDS011;9146;48.074;11.968;2022-10-23T02:40:04;2.77;;;2.57;;
18042;SDS011;9146;48.074;11.968;2022-10-23T02:42:35;3.20;;;2.90;;
18042;SDS011;9146;48.074;11.968;2022-10-23T02:45:10;6.10;;;3.80;;
18042;SDS011;9146;48.074;11.968;2022-10-23T02:47:45;4.90;;;3.70;;
18042;SDS011;9146;48.074;11.968;2022-10-23T02:50:21;8.80;;;3.43;;
18042;SDS011;9146;48.074;11.968;2022-10-23T02:52:58;3.37;;;3.07;;
18042;SDS011;9146;48.074;11.968;2022-10-23T02:55:35;3.80;;;3.40;;
18042;SDS011;9146;48.074;11.968;2022-10-23T02:58:11;4.10;;;3.47;;
18042;SDS011;9146;48.074;11.968;2022-10-23T03:00:47;3.20;;;2.90;;
18042;SDS011;9146;48.074;11.968;2022-10-23T03:03:18;3.40;;;3.10;;
18042;SDS011;9146;48.074;11.968;2022-10-23T03:05:48;4.33;;;3.93;;
18042;SDS011;9146;48.074;11.968;2022-10-23T03:08:16;4.10;;;3.70;;
18042;SDS011;9146;48.074;11.968;2022-10-23T03:10:42;3.60;;;3.30;;
18042;SDS011;9146;48.074;11.968;2022-10-23T03:13:10;4.13;;;3.10;;
18042;SDS011;9146;48.074;11.968;2022-10-23T03:15:37;3.10;;;2.90;;
18042;SDS011;9146;48.074;11.968;2022-10-23T03:18:05;3.17;;;2.97;;
18042;SDS011;9146;48.074;11.968;2022-10-23T03:20:32;3.73;;;2.90;;
18042;SDS011;9146;48.074;11.968;2022-10-23T03:22:59;3.50;;;3.10;;
18042;SDS011;9146;48.074;11.968;2022-10-23T03:25:26;3.97;;;3.53;;
18042;SDS011;9146;48.074;11.968;2022-10-23T03:27:53;4.93;;;3.80;;
18042;SDS011;9146;48.074;11.968;2022-10-23T03:30:20;3.70;;;3.33;;
18042;SDS011;9146;48.074;11.968;2022-10-23T03:32:47;9.33;;;3.37;;
18042;SDS011;9146;48.074;11.968;2022-10-23T03:35:15;3.57;;;3.10;;
18042;SDS011;9146;48.074;11.968;2022-10-23T03:37:42;3.50;;;3.20;;
18042;SDS011;9146;48.074;11.968;2022-10-23T03:40:09;3.60;;;3.30;;
18042;SDS011;9146;48.074;11.968;2022-10-23T03:42:36;8.97;;;5.10;;
18042;SDS011;9146;48.074;11.968;2022-10-23T03:45:03;4.90;;;4.40;;
18042;SDS011;9146;48.074;11.968;2022-10-23T03:47:31;4.40;;;3.97;;
18042;SDS011;9146;48.074;11.968;2022-10-23T03:49:59;3.80;;;3.50;;
18042;SDS011;9146;48.074;11.968;2022-10-23T03:52:28;2.87;;;2.60;;
18042;SDS011;9146;48.074;11.968;2022-10-23T03:54:55;4.90;;;3.23;;
18042;SDS011;9146;48.074;11.968;2022-10-23T03:57:22;3.17;;;2.97;;
18042;SDS011;9146;48.074;11.968;2022-10-23T03:59:49;3.17;;;2.97;;
18042;SDS011;9146;48.074;11.968;2022-10-23T04:02:16;3.90;;;3.00;;
18042;SDS011;9146;48.074;11.968;2022-10-23T04:04:44;2.80;;;2.60;;
18042;SDS011;9146;48.074;11.968;2022-10-23T04:07:10;2.90;;;2.53;;
18042;SDS011;9146;48.074;11.968;2022-10-23T04:09:39;2.40;;;1.90;;
18042;SDS011;9146;48.074;11.968;2022-10-23T04:12:06;3.50;;;3.03;;
18042;SDS011;9146;48.074;11.968;2022-10-23T04:14:33;3.73;;;2.57;;
18042;SDS011;9146;48.074;11.968;2022-10-23T04:17:00;2.50;;;2.30;;
18042;SDS011;9146;48.074;11.968;2022-10-23T04:19:27;2.30;;;2.03;;
18042;SDS011;9146;48.074;11.968;2022-10-23T04:21:54;3.30;;;2.60;;
18042;SDS011;9146;48.074;11.968;2022-10-23T04:24:21;2.73;;;2.50;;
18042;SDS011;9146;48.074;11.968;2022-10-23T04:26:50;2.77;;;2.57;;
18042;SDS011;9146;48.074;11.968;2022-10-23T04:29:17;2.00;;;1.90;;
18042;SDS011;9146;48.074;11.968;2022-10-23T04:31:46;2.10;;;2.00;;
18042;SDS011;9146;48.074;11.968;2022-10-23T04:34:13;2.97;;;2.50;;
18042;SDS011;9146;48.074;11.968;2022-10-23T04:36:40;2.47;;;2.30;;
18042;SDS011;9146;48.074;11.968;2022-10-23T04:39:07;2.97;;;2.70;;
18042;SDS011;9146;48.074;11.968;2022-10-23T04:41:34;3.77;;;2.50;;
18042;SDS011;9146;48.074;11.968;2022-10-23T04:44:04;1.90;;;1.80;;
18042;SDS011;9146;48.074;11.968;2022-10-23T04:46:31;2.77;;;2.60;;
18042;SDS011;9146;48.074;11.968;2022-10-23T04:48:58;2.43;;;2.23;;
18042;SDS011;9146;48.074;11.968;2022-10-23T04:51:24;2.87;;;2.60;;
18042;SDS011;9146;48.074;11.968;2022-10-23T04:53:51;2.33;;;2.17;;
18042;SDS011;9146;48.074;11.968;2022-10-23T04:56:18;2.10;;;1.90;;
18042;SDS011;9146;48.074;11.968;2022-10-23T04:58:45;10.37;;;3.30;;
18042;SDS011;9146;48.074;11.968;2022-10-23T05:01:14;2.67;;;2.47;;
18042;SDS011;9146;48.074;11.968;2022-10-23T05:03:40;3.07;;;2.80;;
18042;SDS011;9146;48.074;11.968;2022-10-23T05:06:08;3.90;;;3.37;;
18042;SDS011;9146;48.074;11.968;2022-10-23T05:08:35;3.47;;;3.17;;
18042;SDS011;9146;48.074;11.968;2022-10-23T05:11:02;7.87;;;2.80;;
18042;SDS011;9146;48.074;11.968;2022-10-23T05:13:29;2.80;;;2.60;;
18042;SDS011;9146;48.074;11.968;2022-10-23T05:15:56;2.93;;;2.27;;
18042;SDS011;9146;48.074;11.968;2022-10-23T05:18:26;2.30;;;2.20;;
18042;SDS011;9146;48.074;11.968;2022-10-23T05:21:00;1.80;;;1.70;;
18042;SDS011;9146;48.074;11.968;2022-10-23T05:23:30;3.40;;;3.10;;
18042;SDS011;9146;48.074;11.968;2022-10-23T05:26:00;2.63;;;2.40;;
18042;SDS011;9146;48.074;11.968;2022-10-23T05:28:27;3.50;;;3.10;;
18042;SDS011;9146;48.074;11.968;2022-10-23T05:30:54;2.57;;;2.40;;
18042;SDS011;9146;48.074;11.968;2022-10-23T05:33:23;3.47;;;2.83;;
18042;SDS011;9146;48.074;11.968;2022-10-23T05:35:52;4.60;;;2.30;;
18042;SDS011;9146;48.074;11.968;2022-10-23T05:38:19;4.10;;;2.87;;
18042;SDS011;9146;48.074;11.968;2022-10-23T05:40:46;2.20;;;2.10;;
18042;SDS011;9146;48.074;11.968;2022-10-23T05:43:15;2.43;;;2.20;;
18042;SDS011;9146;48.074;11.968;2022-10-23T05:45:42;3.07;;;2.67;;
18042;SDS011;9146;48.074;11.968;2022-10-23T05:48:09;3.10;;;2.90;;
18042;SDS011;9146;48.074;11.968;2022-10-23T05:50:40;2.23;;;2.03;;
18042;SDS011;9146;48.074;11.968;2022-10-23T05:53:08;2.50;;;2.30;;
18042;SDS011;9146;48.074;11.968;2022-10-23T05:55:35;3.23;;;2.60;;
18042;SDS011;9146;48.074;11.968;2022-10-23T05:58:03;3.07;;;2.47;;
18042;SDS011;9146;48.074;11.968;2022-10-23T06:00:30;2.70;;;2.50;;
18042;SDS011;9146;48.074;11.968;2022-10-23T06:02:57;3.07;;;2.77;;
18042;SDS011;9146;48.074;11.968;2022-10-23T06:05:25;4.07;;;2.57;;
18042;SDS011;9146;48.074;11.968;2022-10-23T06:07:57;2.33;;;2.23;;
18042;SDS011;9146;48.074;11.968;2022-10-23T06:10:24;2.17;;;2.07;;
18042;SDS011;9146;48.074;11.968;2022-10-23T06:12:51;3.53;;;3.00;;
18042;SDS011;9146;48.074;11.968;2022-10-23T06:15:18;3.03;;;2.67;;
18042;SDS011;9146;48.074;11.968;2022-10-23T06:17:45;2.70;;;2.50;;
18042;SDS011;9146;48.074;11.968;2022-10-23T06:20:12;2.93;;;2.70;;
18042;SDS011;9146;48.074;11.968;2022-10-23T06:22:39;2.57;;;2.37;;
18042;SDS011;9146;48.074;11.968;2022-10-23T06:25:09;4.67;;;2.77;;
18042;SDS011;9146;48.074;11.968;2022-10-23T06:27:36;3.07;;;2.77;;
18042;SDS011;9146;48.074;11.968;2022-10-23T06:30:03;5.33;;;3.23;;
18042;SDS011;9146;48.074;11.968;2022-10-23T06:32:31;2.83;;;2.40;;
18042;SDS011;9146;48.074;11.968;2022-10-23T06:34:58;3.30;;;2.50;;
18042;SDS011;9146;48.074;11.968;2022-10-23T06:37:25;2.97;;;2.70;;
18042;SDS011;9146;48.074;11.968;2022-10-23T06:39:52;2.43;;;2.23;;
18042;SDS011;9146;48.074;11.968;2022-10-23T06:42:20;3.00;;;2.80;;
18042;SDS011;9146;48.074;11.968;2022-10-23T06:44:47;2.90;;;2.70;;
18042;SDS011;9146;48.074;11.968;2022-10-23T06:47:14;2.40;;;2.20;;
18042;SDS011;9146;48.074;11.968;2022-10-23T06:49:41;3.17;;;2.70;;
18042;SDS011;9146;48.074;11.968;2022-10-23T06:52:08;2.60;;;2.40;;
18042;SDS011;9146;48.074;11.968;2022-10-23T06:54:35;10.77;;;2.77;;
18042;SDS011;9146;48.074;11.968;2022-10-23T06:57:03;3.20;;;2.60;;
18042;SDS011;9146;48.074;11.968;2022-10-23T06:59:31;3.43;;;2.87;;
18042;SDS011;9146;48.074;11.968;2022-10-23T07:01:58;2.60;;;2.40;;
18042;SDS011;9146;48.074;11.968;2022-10-23T07:04:25;3.53;;;3.23;;
18042;SDS011;9146;48.074;11.968;2022-10-23T07:06:53;3.93;;;3.53;;
18042;SDS011;9146;48.074;11.968;2022-10-23T07:09:21;3.37;;;3.17;;
18042;SDS011;9146;48.074;11.968;2022-10-23T07:11:48;4.40;;;4.07;;
18042;SDS011;9146;48.074;11.968;2022-10-23T07:14:15;9.23;;;3.67;;
18042;SDS011;9146;48.074;11.968;2022-10-23T07:16:44;3.77;;;3.00;;
18042;SDS011;9146;48.074;11.968;2022-10-23T07:19:10;5.43;;;3.60;;
18042;SDS011;9146;48.074;11.968;2022-10-23T07:21:37;5.73;;;4.10;;
18042;SDS011;9146;48.074;11.968;2022-10-23T07:24:04;3.40;;;3.10;;
18042;SDS011;9146;48.074;11.968;2022-10-23T07:26:31;3.07;;;2.87;;
18042;SDS011;9146;48.074;11.968;2022-10-23T07:28:58;2.73;;;2.53;;
18042;SDS011;9146;48.074;11.968;2022-10-23T07:31:25;3.40;;;2.70;;
18042;SDS011;9146;48.074;11.968;2022-10-23T07:33:54;3.67;;;3.37;;
18042;SDS011;9146;48.074;11.968;2022-10-23T07:36:21;4.03;;;3.67;;
18042;SDS011;9146;48.074;11.968;2022-10-23T07:38:49;3.07;;;2.87;;
18042;SDS011;9146;48.074;11.968;2022-10-23T07:41:16;3.90;;;3.50;;
18042;SDS011;9146;48.074;11.968;2022-10-23T07:43:43;2.53;;;2.33;;
18042;SDS011;9146;48.074;11.968;2022-10-23T07:46:10;3.43;;;2.80;;
18042;SDS011;9146;48.074;11.968;2022-10-23T07:48:37;4.80;;;3.60;;
18042;SDS011;9146;48.074;11.968;2022-10-23T07:51:06;4.57;;;4.10;;
18042;SDS011;9146;48.074;11.968;2022-10-23T07:53:36;3.97;;;3.37;;
18042;SDS011;9146;48.074;11.968;2022-10-23T07:56:08;3.30;;;3.00;;
18042;SDS011;9146;48.074;11.968;2022-10-23T07:58:37;1.90;;;1.80;;
18042;SDS011;9146;48.074;11.968;2022-10-23T08:01:09;2.23;;;2.03;;
18042;SDS011;9146;48.074;11.968;2022-10-23T08:03:41;3.03;;;2.80;;
18042;SDS011;9146;48.074;11.968;2022-10-23T08:06:09;2.13;;;2.00;;
18042;SDS011;9146;48.074;11.968;2022-10-23T08:08:37;2.17;;;2.07;;
18042;SDS011;9146;48.074;11.968;2022-10-23T08:11:04;1.90;;;1.80;;
18042;SDS011;9146;48.074;11.968;2022-10-23T08:13:31;2.00;;;1.90;;
18042;SDS011;9146;48.074;11.968;2022-10-23T08:15:58;2.07;;;1.93;;
18042;SDS011;9146;48.074;11.968;2022-10-23T08:18:26;2.17;;;1.97;;
18042;SDS011;9146;48.074;11.968;2022-10-23T08:20:57;2.40;;;2.20;;
18042;SDS011;9146;48.074;11.968;2022-10-23T08:23:27;2.60;;;2.40;;
18042;SDS011;9146;48.074;11.968;2022-10-23T08:25:57;4.10;;;2.20;;
18042;SDS011;9146;48.074;11.968;2022-10-23T08:28:26;2.37;;;2.27;;
18042;SDS011;9146;48.074;11.968;2022-10-23T08:30:53;2.30;;;1.97;;
18042;SDS011;9146;48.074;11.968;2022-10-23T08:33:20;1.87;;;1.77;;
18042;SDS011;9146;48.074;11.968;2022-10-23T08:35:48;1.80;;;1.70;;
18042;SDS011;9146;48.074;11.968;2022-10-23T08:38:15;1.70;;;1.60;;
18042;SDS011;9146;48.074;11.968;2022-10-23T08:40:44;1.80;;;1.70;;
18042;SDS011;9146;48.074;11.968;2022-10-23T08:43:14;2.37;;;2.17;;
18042;SDS011;9146;48.074;11.968;2022-10-23T08:45:46;1.87;;;1.77;;
18042;SDS011;9146;48.074;11.968;2022-10-23T08:48:17;1.87;;;1.60;;
18042;SDS011;9146;48.074;11.968;2022-10-23T08:50:49;1.70;;;1.60;;
18042;SDS011;9146;48.074;11.968;2022-10-23T08:53:21;1.87;;;1.77;;
18042;SDS011;9146;48.074;11.968;2022-10-23T08:55:55;1.93;;;1.77;;
18042;SDS011;9146;48.074;11.968;2022-10-23T08:58:28;2.90;;;2.30;;
18042;SDS011;9146;48.074;11.968;2022-10-23T09:01:01;1.90;;;1.80;;
18042;SDS011;9146;48.074;11.968;2022-10-23T09:03:42;2.30;;;2.17;;
18042;SDS011;9146;48.074;11.968;2022-10-23T09:06:11;1.90;;;1.80;;
18042;SDS011;9146;48.074;11.968;2022-10-23T09:08:49;1.80;;;1.70;;
18042;SDS011;9146;48.074;11.968;2022-10-23T09:11:25;1.80;;;1.70;;
18042;SDS011;9146;48.074;11.968;2022-10-23T09:14:01;1.80;;;1.70;;
18042;SDS011;9146;48.074;11.968;2022-10-23T09:16:53;2.80;;;1.80;;
18042;SDS011;9146;48.074;11.968;2022-10-23T09:19:26;1.50;;;1.40;;
18042;SDS011;9146;48.074;11.968;2022-10-23T09:21:54;1.57;;;1.43;;
18042;SDS011;9146;48.074;11.968;2022-10-23T09:24:23;2.23;;;1.50;;
18042;SDS011;9146;48.074;11.968;2022-10-23T09:26:57;1.10;;;1.00;;
18042;SDS011;9146;48.074;11.968;2022-10-23T09:29:25;1.60;;;1.50;;
18042;SDS011;9146;48.074;11.968;2022-10-23T09:31:54;1.80;;;1.53;;
18042;SDS011;9146;48.074;11.968;2022-10-23T09:34:23;1.53;;;1.43;;
18042;SDS011;9146;48.074;11.968;2022-10-23T09:36:52;1.93;;;1.73;;
18042;SDS011;9146;48.074;11.968;2022-10-23T09:39:21;1.90;;;1.80;;
18042;SDS011;9146;48.074;11.968;2022-10-23T09:41:51;1.73;;;1.17;;
18042;SDS011;9146;48.074;11.968;2022-10-23T09:44:20;1.40;;;1.30;;
18042;SDS011;9146;48.074;11.968;2022-10-23T09:46:49;2.10;;;1.90;;
18042;SDS011;9146;48.074;11.968;2022-10-23T09:49:18;1.23;;;1.23;;
18042;SDS011;9146;48.074;11.968;2022-10-23T09:54:47;3.47;;;2.53;;
18042;SDS011;9146;48.074;11.968;2022-10-23T09:57:19;2.80;;;1.40;;
18042;SDS011;9146;48.074;11.968;2022-10-23T09:59:51;1.40;;;1.30;;
18042;SDS011;9146;48.074;11.968;2022-10-23T10:02:20;1.40;;;1.30;;
18042;SDS011;9146;48.074;11.968;2022-10-23T10:04:52;3.23;;;1.73;;
18042;SDS011;9146;48.074;11.968;2022-10-23T10:07:20;3.57;;;1.80;;
18042;SDS011;9146;48.074;11.968;2022-10-23T10:09:48;1.93;;;1.73;;
18042;SDS011;9146;48.074;11.968;2022-10-23T10:12:19;1.57;;;1.33;;
18042;SDS011;9146;48.074;11.968;2022-10-23T10:15:08;1.60;;;1.33;;
18042;SDS011;9146;48.074;11.968;2022-10-23T10:17:42;1.40;;;1.30;;
18042;SDS011;9146;48.074;11.968;2022-10-23T10:20:21;2.70;;;1.50;;
18042;SDS011;9146;48.074;11.968;2022-10-23T10:23:12;1.07;;;1.07;;
18042;SDS011;9146;48.074;11.968;2022-10-23T10:25:48;2.40;;;1.40;;
18042;SDS011;9146;48.074;11.968;2022-10-23T10:28:23;1.40;;;1.30;;
18042;SDS011;9146;48.074;11.968;2022-10-23T10:31:02;1.10;;;1.10;;
18042;SDS011;9146;48.074;11.968;2022-10-23T10:33:40;1.33;;;1.30;;
18042;SDS011;9146;48.074;11.968;2022-10-23T10:36:18;1.50;;;1.40;;
18042;SDS011;9146;48.074;11.968;2022-10-23T10:38:58;1.40;;;1.30;;
18042;SDS011;9146;48.074;11.968;2022-10-23T10:41:29;4.33;;;1.33;;
18042;SDS011;9146;48.074;11.968;2022-10-23T10:44:10;5.07;;;2.17;;
18042;SDS011;9146;48.074;11.968;2022-10-23T10:46:54;1.30;;;1.20;;
18042;SDS011;9146;48.074;11.968;2022-10-23T10:49:25;5.80;;;1.33;;
18042;SDS011;9146;48.074;11.968;2022-10-23T10:51:58;2.00;;;1.30;;
18042;SDS011;9146;48.074;11.968;2022-10-23T10:54:39;1.13;;;1.10;;
18042;SDS011;9146;48.074;11.968;2022-10-23T10:57:17;1.20;;;1.10;;
18042;SDS011;9146;48.074;11.968;2022-10-23T10:59:52;1.33;;;1.23;;
18042;SDS011;9146;48.074;11.968;2022-10-23T11:02:27;1.23;;;1.23;;
18042;SDS011;9146;48.074;11.968;2022-10-23T11:04:59;1.30;;;1.20;;
18042;SDS011;9146;48.074;11.968;2022-10-23T11:07:39;1.53;;;1.43;;
18042;SDS011;9146;48.074;11.968;2022-10-23T11:10:18;1.00;;;1.00;;
18042;SDS011;9146;48.074;11.968;2022-10-23T11:12:46;1.10;;;1.10;;
18042;SDS011;9146;48.074;11.968;2022-10-23T11:15:14;2.63;;;1.20;;
18042;SDS011;9146;48.074;11.968;2022-10-23T11:17:46;1.30;;;1.20;;
18042;SDS011;9146;48.074;11.968;2022-10-23T11:20:22;1.30;;;1.20;;
18042;SDS011;9146;48.074;11.968;2022-10-23T11:23:04;1.13;;;1.13;;
18042;SDS011;9146;48.074;11.968;2022-10-23T11:25:51;2.20;;;1.13;;
18042;SDS011;9146;48.074;11.968;2022-10-23T11:28:33;1.47;;;1.27;;
18042;SDS011;9146;48.074;11.968;2022-10-23T11:31:14;1.50;;;1.40;;
18042;SDS011;9146;48.074;11.968;2022-10-23T11:34:00;1.30;;;1.20;;
18042;SDS011;9146;48.074;11.968;2022-10-23T11:37:03;1.30;;;1.20;;
18042;SDS011;9146;48.074;11.968;2022-10-23T11:39:33;0.80;;;0.80;;
18042;SDS011;9146;48.074;11.968;2022-10-23T11:42:11;1.70;;;1.30;;
18042;SDS011;9146;48.074;11.968;2022-10-23T11:44:41;6.87;;;1.13;;
18042;SDS011;9146;48.074;11.968;2022-10-23T11:47:29;1.80;;;1.00;;
18042;SDS011;9146;48.074;11.968;2022-10-23T11:52:59;1.20;;;1.10;;
18042;SDS011;9146;48.074;11.968;2022-10-23T11:55:31;0.90;;;0.90;;
18042;SDS011;9146;48.074;11.968;2022-10-23T11:58:07;1.20;;;1.10;;
18042;SDS011;9146;48.074;11.968;2022-10-23T12:00:48;1.47;;;1.37;;
18042;SDS011;9146;48.074;11.968;2022-10-23T12:03:24;1.10;;;1.07;;
18042;SDS011;9146;48.074;11.968;2022-10-23T12:06:01;1.17;;;1.10;;
18042;SDS011;9146;48.074;11.968;2022-10-23T12:08:31;1.30;;;1.30;;
18042;SDS011;9146;48.074;11.968;2022-10-23T12:11:00;0.90;;;0.90;;
18042;SDS011;9146;48.074;11.968;2022-10-23T12:13:29;1.03;;;1.03;;
18042;SDS011;9146;48.074;11.968;2022-10-23T12:16:07;2.00;;;1.10;;
18042;SDS011;9146;48.074;11.968;2022-10-23T12:18:43;1.20;;;0.97;;
18042;SDS011;9146;48.074;11.968;2022-10-23T12:21:17;1.20;;;1.13;;
18042;SDS011;9146;48.074;11.968;2022-10-23T12:26:42;1.60;;;1.20;;
18042;SDS011;9146;48.074;11.968;2022-10-23T12:29:20;2.30;;;0.90;;
18042;SDS011;9146;48.074;11.968;2022-10-23T12:31:58;1.10;;;1.10;;
18042;SDS011;9146;48.074;11.968;2022-10-23T12:34:33;1.10;;;1.10;;
18042;SDS011;9146;48.074;11.968;2022-10-23T12:37:20;2.63;;;1.33;;
18042;SDS011;9146;48.074;11.968;2022-10-23T12:40:05;0.90;;;0.90;;
18042;SDS011;9146;48.074;11.968;2022-10-23T12:42:33;2.63;;;1.00;;
18042;SDS011;9146;48.074;11.968;2022-10-23T12:45:02;0.87;;;0.87;;
18042;SDS011;9146;48.074;11.968;2022-10-23T12:47:41;1.10;;;1.03;;
18042;SDS011;9146;48.074;11.968;2022-10-23T12:50:15;1.13;;;1.03;;
18042;SDS011;9146;48.074;11.968;2022-10-23T12:52:50;8.00;;;1.10;;
18042;SDS011;9146;48.074;11.968;2022-10-23T12:55:18;1.03;;;1.00;;
18042;SDS011;9146;48.074;11.968;2022-10-23T12:57:45;1.30;;;1.20;;
18042;SDS011;9146;48.074;11.968;2022-10-23T13:00:17;1.00;;;0.93;;
18042;SDS011;9146;48.074;11.968;2022-10-23T13:02:45;1.00;;;1.00;;
18042;SDS011;9146;48.074;11.968;2022-10-23T13:05:22;1.20;;;1.10;;
18042;SDS011;9146;48.074;11.968;2022-10-23T13:07:51;4.00;;;1.00;;
18042;SDS011;9146;48.074;11.968;2022-10-23T13:10:19;1.73;;;1.27;;
18042;SDS011;9146;48.074;11.968;2022-10-23T13:12:49;1.23;;;1.13;;
18042;SDS011;9146;48.074;11.968;2022-10-23T13:15:19;1.17;;;1.07;;
18042;SDS011;9146;48.074;11.968;2022-10-23T13:17:58;0.97;;;0.97;;
18042;SDS011;9146;48.074;11.968;2022-10-23T13:20:26;0.90;;;0.90;;
18042;SDS011;9146;48.074;11.968;2022-10-23T13:22:57;0.97;;;0.93;;
18042;SDS011;9146;48.074;11.968;2022-10-23T13:25:28;0.83;;;0.83;;
18042;SDS011;9146;48.074;11.968;2022-10-23T13:30:58;1.00;;;1.00;;
18042;SDS011;9146;48.074;11.968;2022-10-23T13:33:30;1.10;;;1.10;;
18042;SDS011;9146;48.074;11.968;2022-10-23T13:35:59;1.30;;;1.30;;
18042;SDS011;9146;48.074;11.968;2022-10-23T13:38:30;1.20;;;1.10;;
18042;SDS011;9146;48.074;11.968;2022-10-23T13:40:58;1.33;;;1.00;;
18042;SDS011;9146;48.074;11.968;2022-10-23T13:43:26;1.03;;;0.97;;
18042;SDS011;9146;48.074;11.968;2022-10-23T13:45:55;6.93;;;1.37;;
18042;SDS011;9146;48.074;11.968;2022-10-23T13:48:22;1.30;;;1.20;;
18042;SDS011;9146;48.074;11.968;2022-10-23T13:50:49;1.17;;;1.17;;
18042;SDS011;9146;48.074;11.968;2022-10-23T13:53:16;1.23;;;1.13;;
18042;SDS011;9146;48.074;11.968;2022-10-23T13:55:46;0.90;;;0.90;;
18042;SDS011;9146;48.074;11.968;2022-10-23T13:58:16;1.93;;;0.97;;
18042;SDS011;9146;48.074;11.968;2022-10-23T14:00:43;2.03;;;1.30;;
18042;SDS011;9146;48.074;11.968;2022-10-23T14:03:12;1.20;;;1.07;;
18042;SDS011;9146;48.074;11.968;2022-10-23T14:05:39;1.17;;;0.90;;
18042;SDS011;9146;48.074;11.968;2022-10-23T14:08:06;1.03;;;1.03;;
18042;SDS011;9146;48.074;11.968;2022-10-23T14:10:33;1.23;;;1.10;;
18042;SDS011;9146;48.074;11.968;2022-10-23T14:13:01;1.07;;;1.07;;
18042;SDS011;9146;48.074;11.968;2022-10-23T14:15:28;1.03;;;1.03;;
18042;SDS011;9146;48.074;11.968;2022-10-23T14:17:56;1.47;;;1.37;;
18042;SDS011;9146;48.074;11.968;2022-10-23T14:20:25;1.30;;;1.20;;
18042;SDS011;9146;48.074;11.968;2022-10-23T14:22:52;2.83;;;1.90;;
18042;SDS011;9146;48.074;11.968;2022-10-23T14:25:20;2.07;;;1.70;;
18042;SDS011;9146;48.074;11.968;2022-10-23T14:27:47;2.00;;;1.80;;
18042;SDS011;9146;48.074;11.968;2022-10-23T14:30:15;1.63;;;1.50;;
18042;SDS011;9146;48.074;11.968;2022-10-23T14:32:42;1.37;;;1.27;;
18042;SDS011;9146;48.074;11.968;2022-10-23T14:35:09;1.20;;;1.10;;
18042;SDS011;9146;48.074;11.968;2022-10-23T14:37:36;1.83;;;1.73;;
18042;SDS011;9146;48.074;11.968;2022-10-23T14:40:03;1.63;;;1.40;;
18042;SDS011;9146;48.074;11.968;2022-10-23T14:42:31;1.63;;;1.50;;
18042;SDS011;9146;48.074;11.968;2022-10-23T14:44:58;1.70;;;1.60;;
18042;SDS011;9146;48.074;11.968;2022-10-23T14:47:28;1.57;;;1.47;;
18042;SDS011;9146;48.074;11.968;2022-10-23T14:49:55;1.90;;;1.67;;
18042;SDS011;9146;48.074;11.968;2022-10-23T14:52:22;1.50;;;1.40;;
18042;SDS011;9146;48.074;11.968;2022-10-23T14:54:50;2.17;;;1.97;;
18042;SDS011;9146;48.074;11.968;2022-10-23T14:57:18;3.33;;;1.30;;
18042;SDS011;9146;48.074;11.968;2022-10-23T14:59:46;1.97;;;1.77;;
18042;SDS011;9146;48.074;11.968;2022-10-23T15:02:14;1.57;;;1.47;;
18042;SDS011;9146;48.074;11.968;2022-10-23T15:04:42;1.43;;;1.33;;
18042;SDS011;9146;48.074;11.968;2022-10-23T15:07:09;1.90;;;1.80;;
18042;SDS011;9146;48.074;11.968;2022-10-23T15:09:36;1.23;;;1.23;;
18042;SDS011;9146;48.074;11.968;2022-10-23T15:12:04;1.40;;;1.30;;
18042;SDS011;9146;48.074;11.968;2022-10-23T15:14:31;1.63;;;1.53;;
18042;SDS011;9146;48.074;11.968;2022-10-23T15:16:58;2.20;;;1.47;;
18042;SDS011;9146;48.074;11.968;2022-10-23T15:19:25;2.60;;;1.10;;